sensor_id;sensor_type;location;lat;lon;timestamp;pressure;altitude;pressure_sealevel;temperature;humidity
64025;BME280;50266;57.446;26.936;2022-12-07T00:00:28;99058.25;;;-4.86;100.0
64025;BME280;50266;57.446;26.936;2022-12-07T00:01:32;99055.14;;;-4.82;100.0
64025;BME280;50266;57.446;26.936;2022-12-07T00:02:29;99051.05;;;-4.85;100.0
64025;BME280;50266;57.446;26.936;2022-12-07T00:03:29;99052.23;;;-4.84;100.0
64025;BME280;50266;57.446;26.936;2022-12-07T00:04:29;99054.0;;;-4.82;100.0
64025;BME280;50266;57.446;26.936;2022-12-07T00:05:29;99050.84;;;-4.85;100.0
64025;BME280;50266;57.446;26.936;2022-12-07T00:06:29;99049.05;;;-4.83;100.0
64025;BME280;50266;57.446;26.936;2022-12-07T00:07:29;99052.21;;;-4.75;100.0
64025;BME280;50266;57.446;26.936;2022-12-07T00:08:29;99050.9;;;-4.8;100.0
64025;BME280;50266;57.446;26.936;2022-12-07T00:09:29;99050.78;;;-4.85;100.0
64025;BME280;50266;57.446;26.936;2022-12-07T00:10:29;99046.39;;;-4.83;100.0
64025;BME280;50266;57.446;26.936;2022-12-07T00:11:29;99047.33;;;-4.85;100.0
64025;BME280;50266;57.446;26.936;2022-12-07T00:12:29;99047.97;;;-4.84;100.0
64025;BME280;50266;57.446;26.936;2022-12-07T00:13:29;99044.62;;;-4.85;100.0
64025;BME280;50266;57.446;26.936;2022-12-07T00:14:29;99044.51;;;-4.83;100.0
64025;BME280;50266;57.446;26.936;2022-12-07T00:15:29;99037.73;;;-4.86;100.0
64025;BME280;50266;57.446;26.936;2022-12-07T00:16:30;99039.8;;;-4.83;100.0
64025;BME280;50266;57.446;26.936;2022-12-07T00:17:29;99037.86;;;-4.83;100.0
64025;BME280;50266;57.446;26.936;2022-12-07T00:18:29;99038.54;;;-4.81;100.0
64025;BME280;50266;57.446;26.936;2022-12-07T00:19:29;99036.72;;;-4.83;100.0
64025;BME280;50266;57.446;26.936;2022-12-07T00:20:29;99036.2;;;-4.8;100.0
64025;BME280;50266;57.446;26.936;2022-12-07T00:21:30;99035.71;;;-4.79;100.0
64025;BME280;50266;57.446;26.936;2022-12-07T00:22:29;99034.25;;;-4.83;100.0
64025;BME280;50266;57.446;26.936;2022-12-07T00:23:29;99037.62;;;-4.81;100.0
64025;BME280;50266;57.446;26.936;2022-12-07T00:24:29;99043.8;;;-4.77;100.0
64025;BME280;50266;57.446;26.936;2022-12-07T00:25:30;99042.36;;;-4.8;100.0
64025;BME280;50266;57.446;26.936;2022-12-07T00:26:30;99038.81;;;-4.86;100.0
64025;BME280;50266;57.446;26.936;2022-12-07T00:27:29;99035.69;;;-4.82;100.0
64025;BME280;50266;57.446;26.936;2022-12-07T00:28:29;99030.96;;;-4.84;100.0
64025;BME280;50266;57.446;26.936;2022-12-07T00:29:29;99031.84;;;-4.8;100.0
64025;BME280;50266;57.446;26.936;2022-12-07T00:30:29;99034.52;;;-4.77;100.0
64025;BME280;50266;57.446;26.936;2022-12-07T00:31:31;99028.8;;;-4.79;100.0
64025;BME280;50266;57.446;26.936;2022-12-07T00:32:29;99027.8;;;-4.81;100.0
64025;BME280;50266;57.446;26.936;2022-12-07T00:33:29;99032.8;;;-4.8;100.0
64025;BME280;50266;57.446;26.936;2022-12-07T00:34:29;99030.67;;;-4.82;100.0
64025;BME280;50266;57.446;26.936;2022-12-07T00:35:29;99030.53;;;-4.79;100.0
64025;BME280;50266;57.446;26.936;2022-12-07T00:36:29;99031.85;;;-4.81;100.0
64025;BME280;50266;57.446;26.936;2022-12-07T00:37:29;99020.98;;;-4.8;100.0
64025;BME280;50266;57.446;26.936;2022-12-07T00:38:30;99033.59;;;-4.78;100.0
64025;BME280;50266;57.446;26.936;2022-12-07T00:39:29;99023.86;;;-4.82;100.0
64025;BME280;50266;57.446;26.936;2022-12-07T00:40:29;99026.41;;;-4.83;100.0
64025;BME280;50266;57.446;26.936;2022-12-07T00:41:29;99024.58;;;-4.83;100.0
64025;BME280;50266;57.446;26.936;2022-12-07T00:42:29;99022.16;;;-4.84;100.0
64025;BME280;50266;57.446;26.936;2022-12-07T00:43:29;99022.41;;;-4.82;100.0
64025;BME280;50266;57.446;26.936;2022-12-07T00:44:29;99021.73;;;-4.79;100.0
64025;BME280;50266;57.446;26.936;2022-12-07T00:45:29;99021.7;;;-4.86;100.0
64025;BME280;50266;57.446;26.936;2022-12-07T00:46:29;99022.11;;;-4.84;100.0
64025;BME280;50266;57.446;26.936;2022-12-07T00:47:29;99021.86;;;-4.81;100.0
64025;BME280;50266;57.446;26.936;2022-12-07T00:48:29;99024.27;;;-4.84;100.0
64025;BME280;50266;57.446;26.936;2022-12-07T00:49:29;99017.66;;;-4.77;100.0
64025;BME280;50266;57.446;26.936;2022-12-07T00:50:29;99025.39;;;-4.76;100.0
64025;BME280;50266;57.446;26.936;2022-12-07T00:51:29;99021.36;;;-4.85;100.0
64025;BME280;50266;57.446;26.936;2022-12-07T00:52:29;99018.45;;;-4.81;100.0
64025;BME280;50266;57.446;26.936;2022-12-07T00:53:30;99015.19;;;-4.83;100.0
64025;BME280;50266;57.446;26.936;2022-12-07T00:54:32;99017.56;;;-4.83;100.0
64025;BME280;50266;57.446;26.936;2022-12-07T00:55:33;99019.3;;;-4.89;100.0
64025;BME280;50266;57.446;26.936;2022-12-07T00:56:32;99017.57;;;-4.84;100.0
64025;BME280;50266;57.446;26.936;2022-12-07T00:57:32;99017.55;;;-4.82;100.0
64025;BME280;50266;57.446;26.936;2022-12-07T00:58:32;99016.06;;;-4.85;100.0
64025;BME280;50266;57.446;26.936;2022-12-07T00:59:32;99007.71;;;-4.86;100.0
64025;BME280;50266;57.446;26.936;2022-12-07T01:00:32;99014.34;;;-4.89;100.0
64025;BME280;50266;57.446;26.936;2022-12-07T01:01:33;99017.67;;;-4.88;100.0
64025;BME280;50266;57.446;26.936;2022-12-07T01:02:32;99019.97;;;-4.81;100.0
64025;BME280;50266;57.446;26.936;2022-12-07T01:03:32;99014.56;;;-4.86;100.0
64025;BME280;50266;57.446;26.936;2022-12-07T01:04:33;99020.14;;;-4.77;100.0
64025;BME280;50266;57.446;26.936;2022-12-07T01:05:32;99018.22;;;-4.8;100.0
64025;BME280;50266;57.446;26.936;2022-12-07T01:06:32;99015.82;;;-4.82;100.0
64025;BME280;50266;57.446;26.936;2022-12-07T01:07:32;99015.72;;;-4.82;100.0
64025;BME280;50266;57.446;26.936;2022-12-07T01:08:32;99016.83;;;-4.85;100.0
64025;BME280;50266;57.446;26.936;2022-12-07T01:09:32;99015.41;;;-4.88;100.0
64025;BME280;50266;57.446;26.936;2022-12-07T01:10:32;99018.88;;;-4.85;100.0
64025;BME280;50266;57.446;26.936;2022-12-07T01:11:32;99018.53;;;-4.88;100.0
64025;BME280;50266;57.446;26.936;2022-12-07T01:12:32;99015.27;;;-4.86;100.0
64025;BME280;50266;57.446;26.936;2022-12-07T01:13:33;99013.32;;;-4.85;100.0
64025;BME280;50266;57.446;26.936;2022-12-07T01:14:33;99010.7;;;-4.87;100.0
64025;BME280;50266;57.446;26.936;2022-12-07T01:15:32;99015.14;;;-4.88;100.0
64025;BME280;50266;57.446;26.936;2022-12-07T01:16:32;99012.09;;;-4.86;100.0
64025;BME280;50266;57.446;26.936;2022-12-07T01:17:32;99015.28;;;-4.82;100.0
64025;BME280;50266;57.446;26.936;2022-12-07T01:18:34;99014.2;;;-4.86;100.0
64025;BME280;50266;57.446;26.936;2022-12-07T01:19:32;99012.94;;;-4.8;100.0
64025;BME280;50266;57.446;26.936;2022-12-07T01:20:32;99008.95;;;-4.85;100.0
64025;BME280;50266;57.446;26.936;2022-12-07T01:21:33;99011.25;;;-4.83;100.0
64025;BME280;50266;57.446;26.936;2022-12-07T01:22:36;99013.76;;;-4.86;100.0
64025;BME280;50266;57.446;26.936;2022-12-07T01:23:33;99012.41;;;-4.81;100.0
64025;BME280;50266;57.446;26.936;2022-12-07T01:24:33;99008.38;;;-4.83;100.0
64025;BME280;50266;57.446;26.936;2022-12-07T01:25:33;99003.1;;;-4.89;100.0
64025;BME280;50266;57.446;26.936;2022-12-07T01:26:33;99004.88;;;-4.88;100.0
64025;BME280;50266;57.446;26.936;2022-12-07T01:27:33;99006.51;;;-4.85;100.0
64025;BME280;50266;57.446;26.936;2022-12-07T01:28:33;99006.47;;;-4.81;100.0
64025;BME280;50266;57.446;26.936;2022-12-07T01:29:33;98999.44;;;-4.85;100.0
64025;BME280;50266;57.446;26.936;2022-12-07T01:30:33;99001.84;;;-4.87;100.0
64025;BME280;50266;57.446;26.936;2022-12-07T01:31:33;98998.16;;;-4.81;100.0
64025;BME280;50266;57.446;26.936;2022-12-07T01:32:33;98997.52;;;-4.86;100.0
64025;BME280;50266;57.446;26.936;2022-12-07T01:33:34;98998.21;;;-4.81;100.0
64025;BME280;50266;57.446;26.936;2022-12-07T01:34:33;98996.63;;;-4.85;100.0
64025;BME280;50266;57.446;26.936;2022-12-07T01:35:33;98997.22;;;-4.84;100.0
64025;BME280;50266;57.446;26.936;2022-12-07T01:36:34;98996.96;;;-4.85;100.0
64025;BME280;50266;57.446;26.936;2022-12-07T01:37:34;98996.27;;;-4.86;100.0
64025;BME280;50266;57.446;26.936;2022-12-07T01:38:33;98998.08;;;-4.88;100.0
64025;BME280;50266;57.446;26.936;2022-12-07T01:39:33;98999.66;;;-4.89;100.0
64025;BME280;50266;57.446;26.936;2022-12-07T01:40:33;98991.56;;;-4.85;100.0
64025;BME280;50266;57.446;26.936;2022-12-07T01:41:34;99001.62;;;-4.83;100.0
64025;BME280;50266;57.446;26.936;2022-12-07T01:42:33;98996.86;;;-4.86;100.0
64025;BME280;50266;57.446;26.936;2022-12-07T01:43:33;98992.4;;;-4.83;100.0
64025;BME280;50266;57.446;26.936;2022-12-07T01:45:14;98991.29;;;-4.9;100.0
64025;BME280;50266;57.446;26.936;2022-12-07T01:45:38;98991.94;;;-4.9;100.0
64025;BME280;50266;57.446;26.936;2022-12-07T01:46:34;98991.25;;;-4.87;100.0
64025;BME280;50266;57.446;26.936;2022-12-07T01:47:34;98989.99;;;-4.9;100.0
64025;BME280;50266;57.446;26.936;2022-12-07T01:48:36;98986.84;;;-4.89;100.0
64025;BME280;50266;57.446;26.936;2022-12-07T01:49:39;98987.77;;;-4.85;100.0
64025;BME280;50266;57.446;26.936;2022-12-07T01:50:37;98984.03;;;-4.88;100.0
64025;BME280;50266;57.446;26.936;2022-12-07T01:51:37;98991.09;;;-4.87;100.0
64025;BME280;50266;57.446;26.936;2022-12-07T01:52:37;98988.88;;;-4.92;100.0
64025;BME280;50266;57.446;26.936;2022-12-07T01:53:38;98985.61;;;-4.89;100.0
64025;BME280;50266;57.446;26.936;2022-12-07T01:54:37;98983.88;;;-4.88;100.0
64025;BME280;50266;57.446;26.936;2022-12-07T01:55:38;98986.65;;;-4.9;100.0
64025;BME280;50266;57.446;26.936;2022-12-07T01:56:37;98988.81;;;-4.91;100.0
64025;BME280;50266;57.446;26.936;2022-12-07T01:57:39;98986.27;;;-4.94;100.0
64025;BME280;50266;57.446;26.936;2022-12-07T01:58:37;98979.17;;;-4.93;100.0
64025;BME280;50266;57.446;26.936;2022-12-07T01:59:38;98979.59;;;-4.92;100.0
64025;BME280;50266;57.446;26.936;2022-12-07T02:00:37;98980.8;;;-4.89;100.0
64025;BME280;50266;57.446;26.936;2022-12-07T02:01:37;98982.01;;;-4.9;100.0
64025;BME280;50266;57.446;26.936;2022-12-07T02:02:40;98978.61;;;-4.91;100.0
64025;BME280;50266;57.446;26.936;2022-12-07T02:03:39;98976.62;;;-4.91;100.0
64025;BME280;50266;57.446;26.936;2022-12-07T02:04:38;98978.83;;;-4.91;100.0
64025;BME280;50266;57.446;26.936;2022-12-07T02:05:40;98981.22;;;-4.92;100.0
64025;BME280;50266;57.446;26.936;2022-12-07T02:06:39;98976.3;;;-4.91;100.0
64025;BME280;50266;57.446;26.936;2022-12-07T02:07:38;98981.44;;;-4.97;100.0
64025;BME280;50266;57.446;26.936;2022-12-07T02:08:38;98975.27;;;-4.96;100.0
64025;BME280;50266;57.446;26.936;2022-12-07T02:09:38;98977.44;;;-4.91;100.0
64025;BME280;50266;57.446;26.936;2022-12-07T02:10:39;98972.45;;;-4.94;100.0
64025;BME280;50266;57.446;26.936;2022-12-07T02:11:39;98970.16;;;-4.92;100.0
64025;BME280;50266;57.446;26.936;2022-12-07T02:12:38;98971.78;;;-4.88;100.0
64025;BME280;50266;57.446;26.936;2022-12-07T02:13:39;98971.53;;;-4.9;100.0
64025;BME280;50266;57.446;26.936;2022-12-07T02:14:38;98971.51;;;-4.88;100.0
64025;BME280;50266;57.446;26.936;2022-12-07T02:15:55;98975.95;;;-4.89;100.0
64025;BME280;50266;57.446;26.936;2022-12-07T02:17:53;98967.56;;;-4.88;100.0
64025;BME280;50266;57.446;26.936;2022-12-07T02:21:16;98963.75;;;-4.94;100.0
64025;BME280;50266;57.446;26.936;2022-12-07T02:23:23;98957.8;;;-4.93;100.0
64025;BME280;50266;57.446;26.936;2022-12-07T02:25:26;98958.56;;;-4.89;100.0
64025;BME280;50266;57.446;26.936;2022-12-07T02:26:19;98958.8;;;-4.86;100.0
64025;BME280;50266;57.446;26.936;2022-12-07T02:27:20;98959.78;;;-4.92;100.0
64025;BME280;50266;57.446;26.936;2022-12-07T02:30:19;98957.44;;;-4.9;100.0
64025;BME280;50266;57.446;26.936;2022-12-07T02:31:19;98950.31;;;-4.95;100.0
64025;BME280;50266;57.446;26.936;2022-12-07T02:33:27;98949.55;;;-5.0;100.0
64025;BME280;50266;57.446;26.936;2022-12-07T02:34:32;98946.45;;;-4.96;100.0
64025;BME280;50266;57.446;26.936;2022-12-07T02:35:40;98944.34;;;-4.96;100.0
64025;BME280;50266;57.446;26.936;2022-12-07T02:36:37;98943.16;;;-4.97;100.0
64025;BME280;50266;57.446;26.936;2022-12-07T02:37:53;98942.77;;;-4.96;100.0
64025;BME280;50266;57.446;26.936;2022-12-07T02:38:49;98947.06;;;-4.94;100.0
64025;BME280;50266;57.446;26.936;2022-12-07T02:39:50;98938.56;;;-4.96;100.0
64025;BME280;50266;57.446;26.936;2022-12-07T02:40:48;98943.08;;;-4.94;100.0
64025;BME280;50266;57.446;26.936;2022-12-07T02:41:47;98935.66;;;-4.96;100.0
64025;BME280;50266;57.446;26.936;2022-12-07T02:42:47;98936.83;;;-4.91;100.0
64025;BME280;50266;57.446;26.936;2022-12-07T02:43:47;98937.5;;;-4.93;100.0
64025;BME280;50266;57.446;26.936;2022-12-07T02:44:46;98933.39;;;-4.96;100.0
64025;BME280;50266;57.446;26.936;2022-12-07T02:45:46;98941.81;;;-4.92;100.0
64025;BME280;50266;57.446;26.936;2022-12-07T02:46:51;98940.14;;;-4.99;100.0
64025;BME280;50266;57.446;26.936;2022-12-07T02:47:51;98935.28;;;-4.98;100.0
64025;BME280;50266;57.446;26.936;2022-12-07T02:48:49;98933.29;;;-4.97;100.0
64025;BME280;50266;57.446;26.936;2022-12-07T02:49:49;98932.86;;;-4.93;100.0
64025;BME280;50266;57.446;26.936;2022-12-07T02:50:50;98941.89;;;-4.9;100.0
64025;BME280;50266;57.446;26.936;2022-12-07T02:51:49;98936.44;;;-4.9;100.0
64025;BME280;50266;57.446;26.936;2022-12-07T02:52:49;98933.15;;;-4.95;100.0
64025;BME280;50266;57.446;26.936;2022-12-07T02:53:49;98933.89;;;-4.99;100.0
64025;BME280;50266;57.446;26.936;2022-12-07T02:54:49;98935.86;;;-4.96;100.0
64025;BME280;50266;57.446;26.936;2022-12-07T02:55:49;98933.45;;;-4.99;100.0
64025;BME280;50266;57.446;26.936;2022-12-07T02:58:05;98938.64;;;-4.94;100.0
64025;BME280;50266;57.446;26.936;2022-12-07T03:00:08;98932.03;;;-5.02;100.0
64025;BME280;50266;57.446;26.936;2022-12-07T03:01:12;98932.42;;;-4.98;100.0
64025;BME280;50266;57.446;26.936;2022-12-07T03:03:09;98924.66;;;-5.0;100.0
64025;BME280;50266;57.446;26.936;2022-12-07T03:36:12;98899.38;;;-4.96;100.0
64025;BME280;50266;57.446;26.936;2022-12-07T03:38:22;98894.36;;;-4.97;100.0
64025;BME280;50266;57.446;26.936;2022-12-07T03:39:21;98896.3;;;-4.92;100.0
64025;BME280;50266;57.446;26.936;2022-12-07T03:40:21;98897.17;;;-4.99;100.0
64025;BME280;50266;57.446;26.936;2022-12-07T03:41:22;98895.56;;;-4.94;100.0
64025;BME280;50266;57.446;26.936;2022-12-07T03:42:19;98895.48;;;-4.96;100.0
64025;BME280;50266;57.446;26.936;2022-12-07T03:43:19;98889.96;;;-5.0;100.0
64025;BME280;50266;57.446;26.936;2022-12-07T03:44:19;98896.2;;;-4.93;100.0
64025;BME280;50266;57.446;26.936;2022-12-07T03:45:20;98894.3;;;-5.02;100.0
64025;BME280;50266;57.446;26.936;2022-12-07T03:46:36;98892.8;;;-4.97;100.0
64025;BME280;50266;57.446;26.936;2022-12-07T03:48:34;98890.22;;;-4.99;100.0
64025;BME280;50266;57.446;26.936;2022-12-07T03:49:30;98878.33;;;-4.98;100.0
64025;BME280;50266;57.446;26.936;2022-12-07T03:50:31;98882.98;;;-5.0;100.0
64025;BME280;50266;57.446;26.936;2022-12-07T03:51:33;98887.75;;;-4.95;100.0
64025;BME280;50266;57.446;26.936;2022-12-07T03:52:45;98883.72;;;-4.98;100.0
64025;BME280;50266;57.446;26.936;2022-12-07T03:53:40;98887.18;;;-5.03;100.0
64025;BME280;50266;57.446;26.936;2022-12-07T03:54:36;98885.87;;;-5.01;100.0
64025;BME280;50266;57.446;26.936;2022-12-07T03:55:36;98877.84;;;-4.96;100.0
64025;BME280;50266;57.446;26.936;2022-12-07T03:56:35;98881.8;;;-4.99;100.0
64025;BME280;50266;57.446;26.936;2022-12-07T03:57:35;98881.66;;;-4.96;100.0
64025;BME280;50266;57.446;26.936;2022-12-07T03:58:35;98880.78;;;-5.0;100.0
64025;BME280;50266;57.446;26.936;2022-12-07T03:59:35;98880.06;;;-4.93;100.0
64025;BME280;50266;57.446;26.936;2022-12-07T04:00:35;98870.41;;;-5.0;100.0
64025;BME280;50266;57.446;26.936;2022-12-07T04:01:35;98870.22;;;-4.96;100.0
64025;BME280;50266;57.446;26.936;2022-12-07T04:02:35;98868.02;;;-5.03;100.0
64025;BME280;50266;57.446;26.936;2022-12-07T04:03:36;98867.56;;;-5.01;100.0
64025;BME280;50266;57.446;26.936;2022-12-07T04:04:35;98863.17;;;-4.99;100.0
64025;BME280;50266;57.446;26.936;2022-12-07T04:05:36;98863.66;;;-4.97;100.0
64025;BME280;50266;57.446;26.936;2022-12-07T04:06:35;98861.17;;;-5.04;100.0
64025;BME280;50266;57.446;26.936;2022-12-07T04:07:35;98858.08;;;-5.02;100.0
64025;BME280;50266;57.446;26.936;2022-12-07T04:08:35;98860.84;;;-4.97;100.0
64025;BME280;50266;57.446;26.936;2022-12-07T04:09:36;98857.3;;;-5.0;100.0
64025;BME280;50266;57.446;26.936;2022-12-07T04:10:36;98856.48;;;-5.0;100.0
64025;BME280;50266;57.446;26.936;2022-12-07T04:11:36;98857.48;;;-5.02;100.0
64025;BME280;50266;57.446;26.936;2022-12-07T04:12:36;98856.08;;;-5.02;100.0
64025;BME280;50266;57.446;26.936;2022-12-07T04:13:36;98853.48;;;-5.01;100.0
64025;BME280;50266;57.446;26.936;2022-12-07T04:14:36;98852.92;;;-4.94;100.0
64025;BME280;50266;57.446;26.936;2022-12-07T04:15:36;98853.98;;;-4.98;100.0
64025;BME280;50266;57.446;26.936;2022-12-07T04:16:36;98855.53;;;-5.02;100.0
64025;BME280;50266;57.446;26.936;2022-12-07T04:17:40;98849.2;;;-5.04;100.0
64025;BME280;50266;57.446;26.936;2022-12-07T04:18:40;98845.08;;;-5.03;100.0
64025;BME280;50266;57.446;26.936;2022-12-07T04:19:40;98848.97;;;-5.03;100.0
64025;BME280;50266;57.446;26.936;2022-12-07T04:20:40;98846.77;;;-5.04;100.0
64025;BME280;50266;57.446;26.936;2022-12-07T04:21:40;98846.8;;;-5.02;100.0
64025;BME280;50266;57.446;26.936;2022-12-07T04:22:40;98840.0;;;-5.02;100.0
64025;BME280;50266;57.446;26.936;2022-12-07T04:23:40;98840.48;;;-5.02;100.0
64025;BME280;50266;57.446;26.936;2022-12-07T04:24:40;98839.36;;;-4.97;100.0
64025;BME280;50266;57.446;26.936;2022-12-07T04:25:40;98834.66;;;-4.97;100.0
64025;BME280;50266;57.446;26.936;2022-12-07T04:26:40;98838.8;;;-4.96;100.0
64025;BME280;50266;57.446;26.936;2022-12-07T04:27:40;98836.61;;;-4.99;100.0
64025;BME280;50266;57.446;26.936;2022-12-07T04:28:40;98836.73;;;-5.0;100.0
64025;BME280;50266;57.446;26.936;2022-12-07T04:29:40;98835.33;;;-5.08;100.0
64025;BME280;50266;57.446;26.936;2022-12-07T04:30:40;98828.32;;;-5.09;100.0
64025;BME280;50266;57.446;26.936;2022-12-07T04:31:40;98831.0;;;-5.08;100.0
64025;BME280;50266;57.446;26.936;2022-12-07T04:32:40;98830.64;;;-5.05;100.0
64025;BME280;50266;57.446;26.936;2022-12-07T04:33:40;98832.92;;;-5.02;100.0
64025;BME280;50266;57.446;26.936;2022-12-07T04:34:40;98832.97;;;-5.06;100.0
64025;BME280;50266;57.446;26.936;2022-12-07T04:35:42;98834.16;;;-5.05;100.0
64025;BME280;50266;57.446;26.936;2022-12-07T04:36:40;98830.28;;;-5.06;100.0
64025;BME280;50266;57.446;26.936;2022-12-07T04:37:40;98830.95;;;-5.07;100.0
64025;BME280;50266;57.446;26.936;2022-12-07T04:38:40;98828.62;;;-5.03;100.0
64025;BME280;50266;57.446;26.936;2022-12-07T04:39:40;98829.28;;;-5.08;100.0
64025;BME280;50266;57.446;26.936;2022-12-07T04:40:40;98828.69;;;-5.12;100.0
64025;BME280;50266;57.446;26.936;2022-12-07T04:41:40;98827.66;;;-5.11;100.0
64025;BME280;50266;57.446;26.936;2022-12-07T04:42:40;98826.61;;;-5.1;100.0
64025;BME280;50266;57.446;26.936;2022-12-07T04:43:40;98825.06;;;-5.07;100.0
64025;BME280;50266;57.446;26.936;2022-12-07T04:44:40;98824.84;;;-5.1;100.0
64025;BME280;50266;57.446;26.936;2022-12-07T04:45:44;98825.18;;;-5.04;100.0
64025;BME280;50266;57.446;26.936;2022-12-07T04:46:41;98824.88;;;-5.09;100.0
64025;BME280;50266;57.446;26.936;2022-12-07T04:47:41;98822.2;;;-5.11;100.0
64025;BME280;50266;57.446;26.936;2022-12-07T04:48:41;98820.81;;;-5.13;100.0
64025;BME280;50266;57.446;26.936;2022-12-07T04:49:41;98819.16;;;-5.05;100.0
64025;BME280;50266;57.446;26.936;2022-12-07T04:50:41;98817.11;;;-5.06;100.0
64025;BME280;50266;57.446;26.936;2022-12-07T04:51:42;98816.0;;;-5.08;100.0
64025;BME280;50266;57.446;26.936;2022-12-07T04:52:42;98819.52;;;-5.04;100.0
64025;BME280;50266;57.446;26.936;2022-12-07T04:53:42;98814.31;;;-5.07;100.0
64025;BME280;50266;57.446;26.936;2022-12-07T04:54:42;98814.66;;;-5.05;100.0
64025;BME280;50266;57.446;26.936;2022-12-07T04:55:42;98814.44;;;-5.0;100.0
64025;BME280;50266;57.446;26.936;2022-12-07T04:56:42;98816.91;;;-5.03;100.0
64025;BME280;50266;57.446;26.936;2022-12-07T04:57:42;98816.36;;;-5.07;100.0
64025;BME280;50266;57.446;26.936;2022-12-07T04:58:42;98818.53;;;-5.03;100.0
64025;BME280;50266;57.446;26.936;2022-12-07T04:59:42;98820.05;;;-5.08;100.0
64025;BME280;50266;57.446;26.936;2022-12-07T05:00:42;98816.7;;;-5.04;100.0
64025;BME280;50266;57.446;26.936;2022-12-07T05:01:42;98814.16;;;-5.07;100.0
64025;BME280;50266;57.446;26.936;2022-12-07T05:02:42;98812.59;;;-5.07;100.0
64025;BME280;50266;57.446;26.936;2022-12-07T05:03:42;98811.66;;;-5.06;100.0
64025;BME280;50266;57.446;26.936;2022-12-07T05:04:42;98817.34;;;-5.07;100.0
64025;BME280;50266;57.446;26.936;2022-12-07T05:05:42;98812.25;;;-5.06;100.0
64025;BME280;50266;57.446;26.936;2022-12-07T05:06:42;98815.02;;;-5.11;100.0
64025;BME280;50266;57.446;26.936;2022-12-07T05:07:42;98813.06;;;-5.1;100.0
64025;BME280;50266;57.446;26.936;2022-12-07T05:08:42;98817.66;;;-5.1;100.0
64025;BME280;50266;57.446;26.936;2022-12-07T05:09:42;98814.42;;;-5.11;100.0
64025;BME280;50266;57.446;26.936;2022-12-07T05:10:42;98811.53;;;-5.08;100.0
64025;BME280;50266;57.446;26.936;2022-12-07T05:11:42;98807.83;;;-5.1;100.0
64025;BME280;50266;57.446;26.936;2022-12-07T05:12:42;98817.36;;;-5.08;100.0
64025;BME280;50266;57.446;26.936;2022-12-07T05:13:42;98810.75;;;-5.15;100.0
64025;BME280;50266;57.446;26.936;2022-12-07T05:14:42;98811.48;;;-5.13;100.0
64025;BME280;50266;57.446;26.936;2022-12-07T05:15:42;98813.48;;;-5.19;100.0
64025;BME280;50266;57.446;26.936;2022-12-07T05:16:43;98812.25;;;-5.19;100.0
64025;BME280;50266;57.446;26.936;2022-12-07T05:17:42;98817.11;;;-5.18;100.0
64025;BME280;50266;57.446;26.936;2022-12-07T05:18:42;98810.94;;;-5.22;100.0
64025;BME280;50266;57.446;26.936;2022-12-07T05:19:42;98812.14;;;-5.19;100.0
64025;BME280;50266;57.446;26.936;2022-12-07T05:20:42;98813.86;;;-5.17;100.0
64025;BME280;50266;57.446;26.936;2022-12-07T05:21:42;98817.44;;;-5.19;100.0
64025;BME280;50266;57.446;26.936;2022-12-07T05:22:42;98818.95;;;-5.24;100.0
64025;BME280;50266;57.446;26.936;2022-12-07T05:23:42;98816.64;;;-5.21;100.0
64025;BME280;50266;57.446;26.936;2022-12-07T05:24:42;98817.97;;;-5.17;100.0
64025;BME280;50266;57.446;26.936;2022-12-07T05:25:42;98815.37;;;-5.16;100.0
64025;BME280;50266;57.446;26.936;2022-12-07T05:26:42;98812.38;;;-5.21;100.0
64025;BME280;50266;57.446;26.936;2022-12-07T05:27:42;98819.16;;;-5.17;100.0
64025;BME280;50266;57.446;26.936;2022-12-07T05:28:42;98816.14;;;-5.14;100.0
64025;BME280;50266;57.446;26.936;2022-12-07T05:29:42;98818.39;;;-5.16;100.0
64025;BME280;50266;57.446;26.936;2022-12-07T05:30:42;98813.67;;;-5.2;100.0
64025;BME280;50266;57.446;26.936;2022-12-07T05:31:43;98814.79;;;-5.2;100.0
64025;BME280;50266;57.446;26.936;2022-12-07T05:32:42;98814.78;;;-5.17;100.0
64025;BME280;50266;57.446;26.936;2022-12-07T05:33:42;98810.67;;;-5.16;100.0
64025;BME280;50266;57.446;26.936;2022-12-07T05:34:42;98808.78;;;-5.17;100.0
64025;BME280;50266;57.446;26.936;2022-12-07T05:35:42;98811.72;;;-5.18;100.0
64025;BME280;50266;57.446;26.936;2022-12-07T05:36:42;98808.7;;;-5.21;100.0
64025;BME280;50266;57.446;26.936;2022-12-07T05:37:42;98807.03;;;-5.2;100.0
64025;BME280;50266;57.446;26.936;2022-12-07T05:38:42;98811.77;;;-5.18;100.0
64025;BME280;50266;57.446;26.936;2022-12-07T05:39:42;98804.38;;;-5.19;100.0
64025;BME280;50266;57.446;26.936;2022-12-07T05:40:43;98809.25;;;-5.21;100.0
64025;BME280;50266;57.446;26.936;2022-12-07T05:41:43;98813.08;;;-5.15;100.0
64025;BME280;50266;57.446;26.936;2022-12-07T05:42:43;98808.42;;;-5.19;100.0
64025;BME280;50266;57.446;26.936;2022-12-07T05:43:43;98805.02;;;-5.17;100.0
64025;BME280;50266;57.446;26.936;2022-12-07T05:44:44;98805.02;;;-5.17;100.0
64025;BME280;50266;57.446;26.936;2022-12-07T05:45:43;98811.53;;;-5.17;100.0
64025;BME280;50266;57.446;26.936;2022-12-07T05:46:43;98807.23;;;-5.18;100.0
64025;BME280;50266;57.446;26.936;2022-12-07T05:47:43;98800.33;;;-5.19;100.0
64025;BME280;50266;57.446;26.936;2022-12-07T05:48:43;98808.62;;;-5.19;100.0
64025;BME280;50266;57.446;26.936;2022-12-07T05:49:43;98805.58;;;-5.2;100.0
64025;BME280;50266;57.446;26.936;2022-12-07T05:50:43;98800.02;;;-5.15;100.0
64025;BME280;50266;57.446;26.936;2022-12-07T05:51:43;98810.55;;;-5.15;100.0
64025;BME280;50266;57.446;26.936;2022-12-07T05:52:43;98807.04;;;-5.21;100.0
64025;BME280;50266;57.446;26.936;2022-12-07T05:53:43;98804.89;;;-5.21;100.0
64025;BME280;50266;57.446;26.936;2022-12-07T05:54:44;98797.2;;;-5.24;100.0
64025;BME280;50266;57.446;26.936;2022-12-07T05:55:43;98802.22;;;-5.2;100.0
64025;BME280;50266;57.446;26.936;2022-12-07T05:56:43;98798.0;;;-5.19;100.0
64025;BME280;50266;57.446;26.936;2022-12-07T05:57:43;98799.64;;;-5.21;100.0
64025;BME280;50266;57.446;26.936;2022-12-07T05:58:43;98798.39;;;-5.19;100.0
64025;BME280;50266;57.446;26.936;2022-12-07T05:59:43;98799.78;;;-5.19;100.0
64025;BME280;50266;57.446;26.936;2022-12-07T06:00:43;98791.02;;;-5.15;100.0
64025;BME280;50266;57.446;26.936;2022-12-07T06:01:46;98791.64;;;-5.17;100.0